createdAt,value
2022-12-12T00:02:12.090Z,-0.81
2022-12-12T00:07:15.484Z,-0.82
2022-12-12T00:12:19.687Z,-0.80
2022-12-12T00:17:22.451Z,-0.76
2022-12-12T00:22:25.288Z,-0.86
2022-12-12T00:27:29.446Z,-0.87
2022-12-12T00:32:33.315Z,-0.81
2022-12-12T00:37:36.136Z,-0.85
2022-12-12T00:42:40.283Z,-0.93
2022-12-12T00:47:43.228Z,-1.00
2022-12-12T00:52:46.097Z,-0.95
2022-12-12T00:57:50.260Z,-0.99
2022-12-12T01:02:53.359Z,-1.03
2022-12-12T01:07:56.139Z,-1.03
2022-12-12T01:13:00.273Z,-1.07
2022-12-12T01:18:03.079Z,-1.11
2022-12-12T01:23:05.835Z,-1.11
2022-12-12T01:28:10.648Z,-1.15
2022-12-12T01:33:13.440Z,-1.23
2022-12-12T01:38:16.224Z,-1.24
2022-12-12T01:43:22.428Z,-1.22
2022-12-12T01:48:28.389Z,-1.30
2022-12-12T01:53:34.250Z,-1.33
2022-12-12T01:58:38.467Z,-1.34
2022-12-12T02:03:43.169Z,-1.38
2022-12-12T02:08:47.611Z,-1.45
2022-12-12T02:13:52.129Z,-1.48
2022-12-12T02:19:04.761Z,-1.50
2022-12-12T02:24:45.861Z,-1.52
2022-12-12T02:30:10.064Z,-1.58
2022-12-12T02:35:21.965Z,-1.68
2022-12-12T02:40:35.661Z,-1.69
2022-12-12T02:45:42.212Z,-1.69
2022-12-12T02:50:48.960Z,-1.72
2022-12-12T02:56:02.768Z,-1.69
2022-12-12T03:01:21.060Z,-1.77
2022-12-12T03:07:00.789Z,-1.76
2022-12-12T03:12:08.788Z,-1.69
2022-12-12T03:17:16.985Z,-1.68
2022-12-12T03:22:28.147Z,-1.66
2022-12-12T03:27:35.587Z,-1.67
2022-12-12T03:32:43.714Z,-1.65
2022-12-12T03:37:52.286Z,-1.68
2022-12-12T03:43:01.671Z,-1.64
2022-12-12T03:48:10.462Z,-1.63
2022-12-12T03:53:20.361Z,-1.63
2022-12-12T03:58:29.959Z,-1.62
2022-12-12T04:03:40.495Z,-1.60
2022-12-12T04:09:05.384Z,-1.67
2022-12-12T04:14:22.597Z,-1.64
2022-12-12T04:19:53.821Z,-1.66
2022-12-12T04:25:03.557Z,-1.86
2022-12-12T04:30:08.318Z,-1.93
2022-12-12T04:35:15.007Z,-1.94
2022-12-12T04:40:24.403Z,-1.95
2022-12-12T04:45:31.546Z,-1.98
2022-12-12T04:50:36.237Z,-1.95
2022-12-12T04:55:45.500Z,-1.99
2022-12-12T05:00:53.686Z,-2.10
2022-12-12T05:06:00.643Z,-2.31
2022-12-12T05:11:06.741Z,-2.36
2022-12-12T05:16:17.558Z,-2.38
2022-12-12T05:21:20.544Z,-2.49
2022-12-12T05:26:27.204Z,-2.43
2022-12-12T05:31:29.956Z,-2.46
2022-12-12T05:36:32.783Z,-2.49
2022-12-12T05:41:36.888Z,-2.45
2022-12-12T05:46:39.702Z,-2.48
2022-12-12T05:51:42.445Z,-2.45
2022-12-12T05:56:46.536Z,-2.43
2022-12-12T06:01:49.346Z,-2.40
2022-12-12T06:06:52.167Z,-2.39
2022-12-12T06:11:56.413Z,-2.40
2022-12-12T06:16:59.231Z,-2.47
2022-12-12T06:22:04.841Z,-2.59
2022-12-12T06:27:08.959Z,-2.62
2022-12-12T06:32:11.739Z,-2.67
2022-12-12T06:37:17.432Z,-3.02
2022-12-12T06:42:21.677Z,-2.93
2022-12-12T06:47:24.415Z,-2.82
2022-12-12T06:52:27.145Z,-2.84
2022-12-12T06:57:31.360Z,-2.97
2022-12-12T07:02:34.267Z,-3.06
2022-12-12T07:07:37.122Z,-3.16
2022-12-12T07:12:42.636Z,-3.11
2022-12-12T07:17:48.230Z,-3.10
2022-12-12T07:22:50.967Z,-2.99
2022-12-12T07:27:55.168Z,-3.09
2022-12-12T07:32:58.099Z,-3.10
2022-12-12T07:38:00.867Z,-3.12
2022-12-12T07:43:05.371Z,-2.76
2022-12-12T07:48:08.120Z,-2.10
2022-12-12T07:53:10.888Z,-1.89
2022-12-12T07:58:15.007Z,-1.48
2022-12-12T08:03:17.769Z,-1.42
2022-12-12T08:08:21.038Z,-1.60
2022-12-12T08:13:25.215Z,-1.62
2022-12-12T08:18:27.982Z,-1.53
2022-12-12T08:23:30.779Z,-1.55
2022-12-12T08:28:34.979Z,-1.67
2022-12-12T08:33:37.941Z,-1.88
2022-12-12T08:38:40.782Z,-2.43
2022-12-12T08:43:45.856Z,-2.51
2022-12-12T08:48:49.584Z,-2.09
2022-12-12T08:53:53.811Z,-1.54
2022-12-12T08:58:58.514Z,-1.09
2022-12-12T09:04:01.343Z,-1.22
2022-12-12T09:09:04.214Z,-1.27
2022-12-12T09:14:08.366Z,-1.40
2022-12-12T09:19:11.242Z,-1.33
2022-12-12T09:24:14.047Z,-0.89
2022-12-12T09:29:18.531Z,-0.68
2022-12-12T09:34:21.310Z,-0.81
2022-12-12T09:39:24.051Z,-0.85
2022-12-12T09:44:28.165Z,-0.92
2022-12-12T09:49:43.746Z,-0.78
2022-12-12T09:54:47.184Z,-0.74
2022-12-12T09:59:57.768Z,-0.70
2022-12-12T10:05:03.817Z,-0.72
2022-12-12T10:10:20.451Z,-0.51
2022-12-12T10:15:32.310Z,-0.40
2022-12-12T10:20:41.504Z,-0.39
2022-12-12T10:25:50.776Z,-0.18
2022-12-12T10:31:06.323Z,-0.06
2022-12-12T10:36:18.615Z,-0.07
2022-12-12T10:41:32.892Z,-0.11
2022-12-12T10:46:43.431Z,-0.07
2022-12-12T10:51:49.352Z,-0.10
2022-12-12T10:57:18.048Z,-0.12
2022-12-12T11:02:38.665Z,0.01
2022-12-12T11:07:44.716Z,0.32
2022-12-12T11:12:47.512Z,0.73
2022-12-12T11:17:51.735Z,0.89
2022-12-12T11:22:56.714Z,0.97
2022-12-12T11:28:06.364Z,0.79
2022-12-12T11:33:22.089Z,0.80
2022-12-12T11:38:29.472Z,0.89
2022-12-12T11:43:33.665Z,0.85
2022-12-12T11:48:41.849Z,0.90
2022-12-12T11:53:46.144Z,0.75
2022-12-12T11:58:57.360Z,0.65
2022-12-12T12:04:20.024Z,0.52
2022-12-12T12:09:33.672Z,0.42
2022-12-12T12:14:54.644Z,0.29
2022-12-12T12:20:08.197Z,0.23
2022-12-12T12:25:25.083Z,0.28
2022-12-12T12:30:32.503Z,0.34
2022-12-12T12:35:46.904Z,0.38
2022-12-12T12:41:09.618Z,0.37
2022-12-12T12:46:19.238Z,0.37
2022-12-12T12:51:28.360Z,0.43
2022-12-12T12:56:33.223Z,0.42
2022-12-12T13:01:40.260Z,0.39
2022-12-12T13:06:51.468Z,0.41
2022-12-12T13:11:59.799Z,0.42
2022-12-12T13:17:07.201Z,0.34
2022-12-12T13:22:16.552Z,0.16
2022-12-12T13:27:24.665Z,0.16
2022-12-12T13:33:03.630Z,0.17
2022-12-12T13:38:18.944Z,0.17
2022-12-12T13:43:30.276Z,0.23
2022-12-12T13:48:47.281Z,0.18
2022-12-12T13:54:14.427Z,0.25
2022-12-12T13:59:30.445Z,0.26
2022-12-12T14:04:34.767Z,0.16
2022-12-12T14:09:48.471Z,0.11
2022-12-12T14:14:56.840Z,0.12
2022-12-12T14:20:01.155Z,0.12
2022-12-12T14:25:20.294Z,0.08
2022-12-12T14:30:25.408Z,0.02
2022-12-12T14:35:35.475Z,0.00
2022-12-12T14:40:44.668Z,-0.08
2022-12-12T14:45:56.890Z,-0.19
2022-12-12T14:51:09.079Z,-0.39
2022-12-12T14:56:15.584Z,-0.54
2022-12-12T15:01:27.951Z,-0.64
2022-12-12T15:06:32.172Z,-0.66
2022-12-12T15:11:36.749Z,-0.71
2022-12-12T15:16:48.416Z,-0.62
2022-12-12T15:21:52.129Z,-0.59
2022-12-12T15:26:58.850Z,-1.20
2022-12-12T15:32:04.982Z,-1.08
2022-12-12T15:37:13.452Z,-0.92
2022-12-12T15:42:17.672Z,-1.04
2022-12-12T15:47:21.752Z,-0.86
2022-12-12T15:52:28.326Z,-0.76
2022-12-12T15:57:44.568Z,-0.70
2022-12-12T16:02:58.585Z,-0.74
2022-12-12T16:08:44.190Z,-0.77
2022-12-12T16:13:48.403Z,-0.77
2022-12-12T16:18:51.465Z,-0.80
2022-12-12T16:23:54.277Z,-0.77
2022-12-12T16:28:58.442Z,-0.75
2022-12-12T16:34:04.458Z,-0.72
2022-12-12T16:39:07.381Z,-0.74
2022-12-12T16:44:11.529Z,-0.76
2022-12-12T16:49:15.609Z,-0.70
2022-12-12T16:54:18.866Z,-0.73
2022-12-12T16:59:23.098Z,-0.77
2022-12-12T17:04:26.609Z,-0.80
2022-12-12T17:09:30.277Z,-0.91
2022-12-12T17:14:34.517Z,-1.00
2022-12-12T17:19:37.393Z,-1.04
2022-12-12T17:24:40.395Z,-1.14
2022-12-12T17:29:44.807Z,-1.19
2022-12-12T17:34:47.616Z,-1.32
2022-12-12T17:39:50.403Z,-1.56
2022-12-12T17:44:54.581Z,-1.55
2022-12-12T17:49:57.778Z,-1.67
2022-12-12T17:55:53.786Z,-1.79
2022-12-12T18:00:25.792Z,-1.85
2022-12-12T18:05:28.744Z,-1.91
2022-12-12T18:10:31.541Z,-1.99
2022-12-12T18:15:35.681Z,-2.07
2022-12-12T18:20:39.935Z,-2.11
2022-12-12T18:25:42.756Z,-2.16
2022-12-12T18:30:49.721Z,-2.19
2022-12-12T18:35:52.688Z,-2.19
2022-12-12T18:40:55.529Z,-2.24
2022-12-12T18:46:04.839Z,-2.33
2022-12-12T18:51:09.207Z,-2.38
2022-12-12T18:56:15.917Z,-2.38
2022-12-12T19:01:22.701Z,-2.35
2022-12-12T19:06:31.645Z,-2.25
2022-12-12T19:11:37.366Z,-2.12
2022-12-12T19:16:42.062Z,-2.17
2022-12-12T19:21:46.313Z,-2.32
2022-12-12T19:26:49.753Z,-2.43
2022-12-12T19:31:58.669Z,-2.59
2022-12-12T19:37:02.635Z,-2.70
2022-12-12T19:42:05.437Z,-2.72
2022-12-12T19:47:09.625Z,-2.78
2022-12-12T19:52:14.567Z,-2.85
2022-12-12T19:57:17.679Z,-2.92
2022-12-12T20:02:21.817Z,-2.87
2022-12-12T20:07:24.589Z,-2.88
2022-12-12T20:12:27.362Z,-2.92
2022-12-12T20:17:31.434Z,-3.11
2022-12-12T20:22:34.290Z,-3.18
2022-12-12T20:27:37.068Z,-3.22
2022-12-12T20:32:41.183Z,-3.28
2022-12-12T20:37:44.100Z,-3.30
2022-12-12T20:42:54.136Z,-3.27
2022-12-12T20:48:04.391Z,-3.33
2022-12-12T20:53:10.911Z,-3.27
2022-12-12T20:58:13.692Z,-3.39
2022-12-12T21:03:18.051Z,-3.43
2022-12-12T21:08:21.340Z,-3.44
2022-12-12T21:13:25.388Z,-3.52
2022-12-12T21:18:31.739Z,-3.52
2022-12-12T21:23:35.014Z,-3.61
2022-12-12T21:28:38.189Z,-3.68
2022-12-12T21:33:42.418Z,-3.76
2022-12-12T21:38:45.572Z,-3.80
2022-12-12T21:43:48.853Z,-3.80
2022-12-12T21:49:08.331Z,-3.76
2022-12-12T21:54:13.088Z,-3.75
2022-12-12T21:59:17.080Z,-3.78
2022-12-12T22:04:21.234Z,-3.73
2022-12-12T22:09:24.351Z,-3.71
2022-12-12T22:14:27.369Z,-3.65
2022-12-12T22:19:31.903Z,-3.59
2022-12-12T22:24:34.656Z,-3.89
2022-12-12T22:29:37.635Z,-3.94
2022-12-12T22:34:41.773Z,-3.98
2022-12-12T22:39:44.741Z,-4.00
2022-12-12T22:44:47.589Z,-3.98
2022-12-12T22:49:52.576Z,-3.98
2022-12-12T22:54:55.434Z,-3.99
2022-12-12T22:59:58.206Z,-3.95
2022-12-12T23:05:02.348Z,-3.92
2022-12-12T23:10:05.931Z,-3.93
2022-12-12T23:15:09.856Z,-3.97
2022-12-12T23:20:14.020Z,-4.04
2022-12-12T23:25:17.259Z,-4.00
2022-12-12T23:30:20.244Z,-3.99
2022-12-12T23:35:24.315Z,-4.04
2022-12-12T23:40:27.111Z,-3.99
2022-12-12T23:45:30.022Z,-4.08
2022-12-12T23:50:34.655Z,-4.21
2022-12-12T23:55:37.413Z,-4.29
